Pagrindinis puslapis
METAR-TAF:

METAR-TAF

Oro uostai :

Old Crow, Jukonas, Kanada

platuma: 67-34N, ilguma: 139-49W, Aukštis: 251 m

Dabartinis oras

Ataskaita buvo paskelbta 51 minutes, ne 18:00 UTC
Ramus vėjas
Temperatūra -47°C
Drėgmė 56%
Slėgis 1024 hPa
Matomumas: 40.2 km
Mažai debesys ne aukštis 100 ft
Mažai debesys ne aukštis 3800 ft
ledo kristalai, Dalies įtraukti į rūko

METAR: CYOC 161800Z 00000KT 25SM IC PRFG FEW001 FEW038 M47/M52 A3024 RMK ST1SC1 ST TR SC TR IC/FROIN/VIS NE 1/2 SLP301

Laikas: 10:51 (18:51 UTC)

Prognozė

Ataskaita buvo paskelbta 3 valandos ir 13 minutes, ne 15:38 UTC
Prognozė galioja nuo 16 metu 16 UTC su 17 metu 02 UTC
Vėjas 3 kt nuo kintamojo kryptimis
Matomumas: 10 km
Mažai debesys ne aukštis 20000 ft
Laikinai
nuo 16 metu 16 UTC su 17 metu 02 UTC
Matomumas: 3.2 km
ledo kristalai, rūkana
Tikimybė 30%
nuo 16 metu 16 UTC su 17 metu 02 UTC
Matomumas: 1.2 km
ledo kristalai, rūkana

TAF: CYOC 161538Z 1616/1702 VRB03KT P6SM FEW200 TEMPO 1616/1702 2SM IC BR PROB30 1616/1702 3/4SM IC BR RMK NXT FCST BY 161900Z

Orai ataskaitas ir orų prognozės (METAR, TAF).

turimą stotys yra geltonos ir raudonos taškus žemėlapyje.

Perkelti pele per norėdami pamatyti stoties vardą.

Tada spustelėkite, norėdami matyti oro stebėjimo ir prognozės.

Norėdami pakeisti žemėlapį: spustelėkite ant žalios mygtukų su juodo kryžiaus žemyn,; žalią mygtuką su brūkšneliu, jei norite nutolinti; arba žalių rodyklių gretimoms žemėlapius.


METAR-TAF: